Data for 02/08/2017

Time Sea-Level Adjusted Pressure Absolute Pressure Temperature Relative Humidity Dew Point   
(mb) (inHg) (mb) (inHg) (C) (F) (%) (C) (F)
00:05 1011 29.85 840 24.81 -13.6 7.5 82 -16 3.2
00:10 1011 29.85 840 24.81 -13.7 7.3 81 -16.3 2.7
00:15 1011 29.85 840 24.81 -14.1 6.6 84 -16.2 2.8
00:20 1011 29.85 840 24.81 -14.1 6.6 84 -16.2 2.8
00:25 1011 29.85 840 24.81 -13.8 7.1 82 -16.2 2.9
00:30 1011 29.85 840 24.81 -13.8 7.2 83 -16.1 3
00:35 1011 29.85 840 24.81 -13.6 7.5 83 -16 3.3
00:40 1011 29.85 840 24.81 -13.6 7.6 80 -16.3 2.7
00:45 1011 29.85 841 24.83 -14 6.8 84 -16.2 2.9
00:50 1012 29.88 841 24.83 -13.8 7.1 84 -16 3.1
00:55 1012 29.88 841 24.83 -13.7 7.3 84 -15.9 3.4
01:00 1012 29.88 841 24.83 -13.6 7.6 83 -15.9 3.4
01:05 1012 29.88 841 24.83 -13.5 7.8 82 -15.9 3.4
01:10 1012 29.88 841 24.83 -13.5 7.7 82 -16 3.2
01:15 1012 29.88 841 24.83 -13.5 7.7 83 -15.8 3.5
01:20 1012 29.88 841 24.83 -13.3 8 83 -15.7 3.8
01:25 1012 29.88 841 24.83 -13.3 8.2 82 -15.7 3.7
01:30 1012 29.88 841 24.83 -13.4 7.9 82 -15.8 3.5
01:35 1012 29.88 842 24.86 -13.5 7.6 82 -16 3.2
01:40 1012 29.88 842 24.86 -13.7 7.4 82 -16.2 2.9
01:45 1012 29.88 842 24.86 -13.8 7.2 83 -16.1 3.1
01:50 1012 29.88 842 24.86 -13.9 7.1 83 -16.1 3
01:55 1012 29.88 842 24.86 -14 6.9 83 -16.3 2.7
02:00 1012 29.88 842 24.86 -14 6.9 85 -16 3.2
02:05 1012 29.88 842 24.86 -14 6.9 82 -16.3 2.6
02:10 1012 29.88 842 24.86 -14.3 6.3 84 -16.5 2.4
02:15 1012 29.88 842 24.86 -14.1 6.7 82 -16.5 2.3
02:20 1012 29.88 842 24.86 -14.2 6.4 83 -16.4 2.4
02:25 1013 29.91 842 24.86 -14.1 6.6 84 -16.3 2.6
02:30 1012 29.88 842 24.86 -14 6.8 85 -16 3.1
02:35 1012 29.88 841 24.83 -14 6.9 83 -16.2 2.8
02:40 1012 29.88 841 24.83 -14.1 6.7 84 -16.1 2.9
02:45 1012 29.88 842 24.86 -14 6.9 84 -16.1 3
02:50 1013 29.91 842 24.86 -14 6.8 84 -16.2 2.8
02:55 1013 29.91 842 24.86 -13.9 6.9 84 -16.1 3.1
03:00 1013 29.91 842 24.86 -13.8 7.2 83 -16.1 3.1
03:05 1013 29.91 842 24.86 -14 6.8 83 -16.3 2.7
03:10 1013 29.91 842 24.86 -14 6.8 84 -16.1 3
03:15 1013 29.91 842 24.86 -13.9 6.9 84 -16.1 3.1
03:20 1013 29.91 842 24.86 -13.8 7.1 84 -16 3.3
03:25 1013 29.91 842 24.86 -13.7 7.3 84 -16 3.3
03:30 1013 29.91 842 24.86 -13.7 7.3 84 -16 3.3
03:35 1013 29.91 842 24.86 -13.7 7.4 84 -15.8 3.5
03:40 1013 29.91 842 24.86 -13.5 7.7 84 -15.7 3.8
03:45 1013 29.91 842 24.86 -13.3 8 83 -15.6 3.9
03:50 1013 29.91 842 24.86 -13.3 8 82 -15.8 3.6
03:55 1013 29.91 843 24.89 -13.4 7.8 85 -15.5 4.1
04:00 1013 29.91 843 24.89 -13.2 8.3 83 -15.5 4.1
04:05 1013 29.91 843 24.89 -13.1 8.4 83 -15.5 4.1
04:10 1014 29.94 843 24.89 -13.3 8.1 83 -15.5 4
04:15 1014 29.94 843 24.89 -13.3 8 83 -15.6 3.8
04:20 1014 29.94 843 24.89 -13.4 7.9 82 -15.9 3.3
04:25 1014 29.94 843 24.89 -13.6 7.4 81 -16.3 2.7
04:30 1014 29.94 843 24.89 -14 6.8 83 -16.3 2.6
04:35 1014 29.94 843 24.89 -14 6.8 83 -16.3 2.6
04:40 1014 29.94 843 24.89 -14.1 6.6 84 -16.3 2.6
04:45 1014 29.94 843 24.89 -14.2 6.4 84 -16.4 2.6
04:50 1014 29.94 843 24.89 -14.5 6 84 -16.6 2.2
04:55 1014 29.94 843 24.89 -14.6 5.7 84 -16.7 1.9
05:00 1014 29.94 843 24.89 -14.5 5.9 85 -16.5 2.2
05:05 1014 29.94 843 24.89 -14.3 6.2 84 -16.5 2.3
05:10 1014 29.94 843 24.89 -14.3 6.3 84 -16.5 2.3
05:15 1014 29.94 843 24.89 -14.3 6.3 84 -16.5 2.3
05:20 1014 29.94 843 24.89 -14.2 6.4 84 -16.4 2.5
05:25 1014 29.94 843 24.89 -14.1 6.6 84 -16.2 2.8
05:30 1014 29.94 843 24.89 -14 6.9 84 -16.2 2.9
05:35 1014 29.94 843 24.89 -13.9 7.1 84 -16 3.2
05:40 1014 29.94 843 24.89 -13.8 7.2 83 -16.1 3
05:45 1014 29.94 843 24.89 -13.9 7 84 -16.1 3.1
05:50 1014 29.94 843 24.89 -13.8 7.1 84 -16 3.1
05:55 1014 29.94 843 24.89 -13.8 7.2 84 -15.9 3.4
06:00 1014 29.94 843 24.89 -13.6 7.6 84 -15.7 3.8
06:05 1014 29.94 843 24.89 -13.3 8 84 -15.5 4.2
06:10 1014 29.94 843 24.89 -13.1 8.4 84 -15.2 4.7
06:15 1014 29.94 843 24.89 -12.9 8.9 83 -15.1 4.8
06:20 1014 29.94 843 24.89 -12.8 9 83 -15.1 4.7
06:25 1014 29.94 843 24.89 -12.9 8.7 83 -15.3 4.4
06:30 1014 29.94 843 24.89 -13 8.5 84 -15.2 4.6
06:35 1014 29.94 843 24.89 -12.9 8.9 83 -15.1 4.8
06:40 1014 29.94 843 24.89 -12.7 9.1 83 -15 4.9
06:45 1014 29.94 843 24.89 -12.8 9 82 -15.2 4.6
06:50 1014 29.94 843 24.89 -13 8.6 83 -15.3 4.4
06:55 1014 29.94 843 24.89 -13.1 8.4 84 -15.3 4.4
07:00 1014 29.94 843 24.89 -13.1 8.5 83 -15.4 4.3
07:05 1014 29.94 843 24.89 -13.1 8.4 83 -15.4 4.3
07:10 1014 29.94 843 24.89 -13.1 8.4 83 -15.4 4.4
07:15 1014 29.94 843 24.89 -13.2 8.2 84 -15.3 4.5
07:20 1014 29.94 843 24.89 -13 8.6 83 -15.3 4.5
07:25 1014 29.94 843 24.89 -13 8.6 83 -15.3 4.5
07:30 1014 29.94 843 24.89 -13.2 8.3 83 -15.4 4.2
07:35 1014 29.94 843 24.89 -13.1 8.4 84 -15.3 4.4
07:40 1014 29.94 843 24.89 -12.9 8.7 83 -15.3 4.4
07:45 1014 29.94 843 24.89 -12.8 8.9 82 -15.3 4.4
07:50 1014 29.94 843 24.89 -13 8.5 83 -15.4 4.3
07:55 1014 29.94 843 24.89 -13.3 8 84 -15.5 4.1
08:00 1014 29.94 843 24.89 -13.4 7.8 84 -15.7 3.8
08:05 1014 29.94 843 24.89 -13.6 7.6 85 -15.6 3.9
08:10 1014 29.94 843 24.89 -13.4 7.9 84 -15.5 4.1
08:15 1014 29.94 843 24.89 -13.4 7.9 84 -15.5 4
08:20 1014 29.94 843 24.89 -13.2 8.2 83 -15.5 4.1
08:25 1014 29.94 844 24.92 -13.1 8.4 82 -15.6 3.9
08:30 1014 29.94 844 24.92 -13.3 8.1 83 -15.6 4
08:35 1014 29.94 844 24.92 -13.3 8 84 -15.5 4
08:40 1014 29.94 844 24.92 -13.2 8.2 83 -15.5 4
08:45 1015 29.97 844 24.92 -13.3 8.1 84 -15.5 4.1
08:50 1014 29.94 844 24.92 -13.1 8.5 82 -15.5 4.1
08:55 1014 29.94 843 24.89 -13.2 8.2 84 -15.4 4.3
09:00 1014 29.94 844 24.92 -13.2 8.3 83 -15.5 4.2
09:05 1014 29.94 844 24.92 -13.2 8.3 83 -15.4 4.2
09:10 1015 29.97 844 24.92 -13 8.6 83 -15.2 4.6
09:15 1015 29.97 844 24.92 -12.8 9 83 -15.1 4.8
09:20 1014 29.94 844 24.92 -12.9 8.9 82 -15.2 4.6
09:25 1015 29.97 844 24.92 -12.8 9 83 -15.1 4.9
09:30 1015 29.97 844 24.92 -12.4 9.7 83 -14.7 5.5
09:35 1015 29.97 844 24.92 -12.1 10.1 81 -14.8 5.4
09:40 1015 29.97 844 24.92 -12.1 10.3 82 -14.5 5.8
09:45 1015 29.97 844 24.92 -11.8 10.8 81 -14.4 6.1
09:50 1015 29.97 844 24.92 -11.5 11.2 80 -14.3 6.2
09:55 1015 29.97 844 24.92 -11.4 11.5 81 -14.1 6.6
10:00 1015 29.97 844 24.92 -11.2 11.8 79 -14.2 6.5
10:05 1015 29.97 844 24.92 -11.3 11.7 78 -14.4 6.1
10:10 1015 29.97 844 24.92 -11.3 11.7 80 -14.1 6.5
10:15 1015 29.97 844 24.92 -10.7 12.7 75 -14.4 6.2
10:20 1015 29.97 844 24.92 -10.8 12.5 76 -14.3 6.3
10:25 1015 29.97 844 24.92 -10.9 12.4 77 -14.2 6.4
10:30 1015 29.97 844 24.92 -10.7 12.7 77 -14 6.8
10:35 1015 29.97 845 24.95 -10.5 13.1 76 -13.9 6.9
10:40 1015 29.97 845 24.95 -10.6 12.9 76 -14.1 6.6
10:45 1015 29.97 845 24.95 -10.8 12.7 77 -14.1 6.6
10:50 1016 30 845 24.95 -10.7 12.7 77 -14 6.8
10:55 1016 30 845 24.95 -10.1 13.9 75 -13.7 7.3
11:00 1016 30 845 24.95 -9.5 15 73 -13.4 7.9
11:05 1016 30 845 24.95 -8.7 16.3 72 -12.9 8.7
11:10 1016 30 845 24.95 -7.9 17.9 70 -12.4 9.8
11:15 1016 30 845 24.95 -7.3 18.9 68 -12.2 10.1
11:20 1016 30 845 24.95 -7.2 19.1 70 -11.7 10.9
11:25 1016 30 845 24.95 -7.3 18.9 70 -11.9 10.6
11:30 1016 30 845 24.95 -7.2 19.1 69 -11.9 10.6
11:35 1016 30 845 24.95 -6.9 19.7 69 -11.7 10.9
11:40 1016 30 845 24.95 -6.1 21.1 65 -11.6 11.1
11:45 1016 30 845 24.95 -5.1 22.8 64 -10.9 12.4
11:50 1016 30 845 24.95 -4.6 23.8 60 -11.2 11.8
11:55 1016 30 845 24.95 -4.2 24.4 60 -10.8 12.5
12:00 1016 30 845 24.95 -4.1 24.7 60 -10.7 12.8
12:05 1016 30 845 24.95 -4 24.7 59 -10.8 12.5
12:10 1016 30 845 24.95 -3.7 25.3 59 -10.6 12.9
12:15 1016 30 845 24.95 -4.2 24.4 63 -10.3 13.4
12:20 1016 30 845 24.95 -3.8 25.2 62 -10.1 13.9
12:25 1016 30 845 24.95 -3.5 25.8 61 -9.8 14.3
12:30 1016 30 845 24.95 -3.4 25.9 63 -9.5 15
12:35 1016 30 845 24.95 -3.3 26.1 64 -9.2 15.4
12:40 1016 30 845 24.95 -3.1 26.5 64 -8.9 15.9
12:45 1016 30 845 24.95 -2.7 27.2 61 -9.1 15.6
12:50 1016 30 845 24.95 -1.8 28.8 57 -9.1 15.5
12:55 1016 30 845 24.95 -1.9 28.7 59 -8.9 16
13:00 1016 30 845 24.95 -1.6 29.1 60 -8.4 16.9
13:05 1016 30 845 24.95 -1.3 29.6 59 -8.4 17
13:10 1016 30 845 24.95 -1.1 30 57 -8.5 16.8
13:15 1016 30 845 24.95 -0.4 31.3 56 -8.2 17.2
13:20 1016 30 845 24.95 0.1 32.1 54 -8.2 17.2
13:25 1016 30 845 24.95 0.7 33.3 52 -8.1 17.4
13:30 1016 30 845 24.95 1 33.8 51 -8.1 17.4
13:35 1016 30 845 24.95 1.6 34.8 50 -7.7 18.1
13:40 1016 30 845 24.95 2 35.6 49 -7.6 18.3
13:45 1016 30 845 24.95 1.3 34.4 54 -7.1 19.3
13:50 1015 29.97 845 24.95 1.3 34.3 54 -7.1 19.2
13:55 1015 29.97 844 24.92 1.3 34.3 51 -7.9 17.8
14:00 1015 29.97 844 24.92 1.1 33.9 53 -7.4 18.7
14:05 1015 29.97 844 24.92 0.4 32.8 55 -7.7 18.2
14:10 1015 29.97 845 24.95 1 33.8 53 -7.6 18.4
14:15 1015 29.97 845 24.95 2.7 36.9 48 -7.3 18.9
14:20 1016 30 845 24.95 3 37.5 47 -7.3 18.9
14:25 1016 30 845 24.95 3.3 37.9 48 -6.6 20
14:30 1016 30 845 24.95 2.6 36.7 51 -6.6 20.2
14:35 1016 30 845 24.95 3 37.4 48 -6.8 19.7
14:40 1016 30 845 24.95 3.8 38.8 44 -7.4 18.7
14:45 1015 29.97 845 24.95 3.9 39 46 -6.5 20.2
14:50 1015 29.97 845 24.95 3 37.3 50 -6.5 20.3
14:55 1015 29.97 845 24.95 2.7 36.8 51 -6.5 20.2
15:00 1015 29.97 845 24.95 1.9 35.4 55 -6.1 21.1
15:05 1015 29.97 845 24.95 0.9 33.7 58 -6.4 20.6
15:10 1015 29.97 845 24.95 1.1 33.9 56 -6.7 20
15:15 1015 29.97 845 24.95 1.2 34.2 56 -6.6 20.2
15:20 1015 29.97 844 24.92 1.1 34 56 -6.7 20
15:25 1015 29.97 844 24.92 1.1 34 54 -7.2 19
15:30 1015 29.97 845 24.95 0.9 33.6 53 -7.6 18.3
15:35 1015 29.97 845 24.95 0.5 32.9 55 -7.6 18.3
15:40 1015 29.97 845 24.95 -0.1 31.9 54 -8.2 17.2
15:45 1015 29.97 845 24.95 -1.3 29.7 59 -8.2 17.3
15:50 1015 29.97 845 24.95 -1.8 28.8 62 -8.2 17.2
15:55 1015 29.97 845 24.95 -2.2 28 61 -8.7 16.4
16:00 1015 29.97 845 24.95 -2.6 27.4 64 -8.4 16.9
16:05 1015 29.97 845 24.95 -2.2 28 63 -8.3 17
16:10 1015 29.97 845 24.95 -2.2 28.1 62 -8.4 16.8
16:15 1016 30 845 24.95 -2.6 27.3 66 -8.2 17.2
16:20 1016 30 845 24.95 -2.6 27.3 64 -8.5 16.7
16:25 1016 30 845 24.95 -2.9 26.8 66 -8.4 16.8
16:30 1016 30 845 24.95 -3.2 26.2 67 -8.5 16.7
16:35 1016 30 845 24.95 -3 26.6 67 -8.4 16.9
16:40 1016 30 845 24.95 -3 26.6 66 -8.5 16.7
16:45 1016 30 845 24.95 -2.9 26.8 66 -8.3 17
16:50 1015 29.97 845 24.95 -2.6 27.3 66 -8.2 17.2
16:55 1015 29.97 845 24.95 -2.3 27.8 64 -8.1 17.4
17:00 1015 29.97 845 24.95 -2.3 27.9 65 -8 17.5
17:05 1015 29.97 845 24.95 -2.2 28 65 -8 17.7
17:10 1015 29.97 845 24.95 -2 28.3 67 -7.3 18.8
17:15 1015 29.97 845 24.95 -1.9 28.7 66 -7.4 18.7
17:20 1015 29.97 844 24.92 -1.8 28.7 65 -7.5 18.5
17:25 1015 29.97 844 24.92 -1.8 28.7 66 -7.4 18.7
17:30 1015 29.97 844 24.92 -2 28.4 67 -7.4 18.7
17:35 1015 29.97 844 24.92 -2 28.4 68 -7.2 19.1
17:40 1015 29.97 845 24.95 -1.9 28.5 68 -7 19.3
17:45 1015 29.97 845 24.95 -2.1 28.2 70 -6.9 19.6
17:50 1015 29.97 844 24.92 -1.7 28.9 69 -6.7 19.9
17:55 1015 29.97 844 24.92 -1.6 29.1 70 -6.4 20.4
18:00 1015 29.97 844 24.92 -1.7 28.9 70 -6.5 20.4
18:05 1015 29.97 844 24.92 -1.5 29.3 70 -6.3 20.7
18:10 1015 29.97 844 24.92 -1.3 29.6 69 -6.3 20.6
18:15 1015 29.97 844 24.92 -1.1 30 69 -6.2 20.9
18:20 1015 29.97 844 24.92 -0.9 30.3 73 -5.1 22.8
18:25 1015 29.97 844 24.92 -0.8 30.6 74 -5 23.1
18:30 1015 29.97 844 24.92 -1 30.2 77 -4.5 23.9
18:35 1015 29.97 844 24.92 -0.9 30.4 81 -3.7 25.4
18:40 1015 29.97 844 24.92 -0.6 30.8 83 -3.2 26.2
18:45 1015 29.97 844 24.92 -0.5 31.2 83 -3 26.7
18:50 1015 29.97 844 24.92 -0.3 31.5 85 -2.6 27.4
18:55 1015 29.97 844 24.92 -0.1 31.8 85 -2.4 27.7
19:00 1015 29.97 844 24.92 -0 32 85 -2.2 28
19:05 1015 29.97 844 24.92 0.1 32.2 85 -2.2 28.1
19:10 1015 29.97 844 24.92 0.1 32.1 86 -2.1 28.3
19:15 1014 29.94 844 24.92 0.1 32.1 85 -2.1 28.2
19:20 1014 29.94 844 24.92 0.2 32.3 85 -2.1 28.3
19:25 1014 29.94 844 24.92 0.2 32.4 84 -2.1 28.2
19:30 1014 29.94 844 24.92 0.3 32.5 84 -2.1 28.2
19:35 1014 29.94 844 24.92 0.4 32.8 83 -2.1 28.3
19:40 1014 29.94 844 24.92 0.4 32.8 83 -2.1 28.3
19:45 1014 29.94 844 24.92 0.4 32.7 84 -2.1 28.2
19:50 1014 29.94 844 24.92 0.2 32.3 82 -2.5 27.5
19:55 1014 29.94 844 24.92 -0.4 31.3 75 -4.3 24.2
20:00 1014 29.94 844 24.92 -1.6 29.2 80 -4.5 23.9
20:05 1014 29.94 844 24.92 -2.1 28.2 83 -4.5 23.8
20:10 1014 29.94 844 24.92 -2.7 27.1 73 -6.9 19.5
20:15 1014 29.94 843 24.89 -4.1 24.6 78 -7.5 18.6
20:20 1014 29.94 843 24.89 -4.7 23.5 80 -7.7 18.1
20:25 1014 29.94 844 24.92 -4.7 23.5 78 -8 17.7
20:30 1014 29.94 843 24.89 -4.5 23.8 76 -8.2 17.2
20:35 1014 29.94 843 24.89 -4.8 23.4 78 -8.1 17.4
20:40 1014 29.94 843 24.89 -5.1 22.7 77 -8.5 16.7
20:45 1014 29.94 843 24.89 -5.3 22.4 79 -8.4 16.9
20:50 1014 29.94 843 24.89 -5.3 22.5 80 -8.3 17.1
20:55 1014 29.94 843 24.89 -5 22.9 79 -8.1 17.4
21:00 1014 29.94 843 24.89 -4.7 23.5 80 -7.6 18.3
21:05 1014 29.94 843 24.89 -4.3 24.2 79 -7.5 18.5
21:10 1014 29.94 843 24.89 -4.1 24.6 78 -7.3 18.8
21:15 1014 29.94 843 24.89 -4.2 24.4 82 -6.8 19.7
21:20 1014 29.94 843 24.89 -3.8 25.1 87 -5.7 21.7
21:25 1014 29.94 843 24.89 -2.6 27.3 89 -4.2 24.4
21:30 1014 29.94 843 24.89 -1.6 29 87 -3.6 25.5
21:35 1014 29.94 843 24.89 -1.3 29.7 85 -3.5 25.6
21:40 1014 29.94 843 24.89 -1.3 29.7 86 -3.3 26.1
21:45 1013 29.91 843 24.89 -1 30.1 86 -3.1 26.5
21:50 1013 29.91 843 24.89 -0.8 30.6 85 -3 26.6
21:55 1013 29.91 842 24.86 -1 30.2 87 -2.9 26.7
22:00 1013 29.91 842 24.86 -1 30.2 88 -2.8 27
22:05 1013 29.91 842 24.86 -0.4 31.3 85 -2.7 27.1
22:10 1013 29.91 842 24.86 -0.6 30.9 85 -2.8 27
22:15 1013 29.91 842 24.86 -0.6 30.9 85 -2.8 27
22:20 1013 29.91 842 24.86 -0.5 31.1 85 -2.8 26.9
22:25 1013 29.91 842 24.86 -0.4 31.2 85 -2.7 27.1
22:30 1013 29.91 842 24.86 -0.4 31.2 85 -2.7 27.1
22:35 1013 29.91 842 24.86 -0.4 31.3 84 -2.8 27
22:40 1013 29.91 842 24.86 -0.1 31.8 82 -2.8 26.9
22:45 1013 29.91 842 24.86 -0 32 82 -2.7 27.1
22:50 1013 29.91 842 24.86 0.1 32.1 81 -2.7 27.1
22:55 1013 29.91 842 24.86 0.2 32.3 80 -2.8 27
23:00 1013 29.91 842 24.86 0.2 32.3 81 -2.8 27
23:05 1013 29.91 842 24.86 0.2 32.3 81 -2.7 27.1
23:10 1013 29.91 842 24.86 0.2 32.3 81 -2.8 27
23:15 1013 29.91 842 24.86 0.3 32.6 79 -2.8 26.9
23:20 1013 29.91 842 24.86 0.5 32.9 78 -2.9 26.8
23:25 1012 29.88 842 24.86 0.6 33.1 78 -2.8 26.9
23:30 1013 29.91 842 24.86 0.7 33.3 77 -2.9 26.8
23:35 1013 29.91 842 24.86 0.9 33.6 76 -2.9 26.8
23:40 1013 29.91 842 24.86 0.9 33.7 76 -2.8 27
23:45 1013 29.91 842 24.86 1 33.8 76 -2.7 27.1
23:50 1012 29.88 842 24.86 1 33.8 76 -2.8 27
23:55 1012 29.88 842 24.86 1 33.8 76 -2.8 27
24:00 1012 29.88 842 24.86 1.1 33.9 75 -2.9 26.8